sensor_id;sensor_type;location;lat;lon;timestamp;P1;durP1;ratioP1;P2;durP2;ratioP2
37657;SDS011;23500;53.268;8.308;2022-10-22T00:01:03;4.88;;;3.22;;
37657;SDS011;23500;53.268;8.308;2022-10-22T00:03:29;4.05;;;3.55;;
37657;SDS011;23500;53.268;8.308;2022-10-22T00:05:55;3.45;;;3.08;;
37657;SDS011;23500;53.268;8.308;2022-10-22T00:08:20;5.13;;;3.60;;
37657;SDS011;23500;53.268;8.308;2022-10-22T00:10:46;3.75;;;3.45;;
37657;SDS011;23500;53.268;8.308;2022-10-22T00:13:12;3.60;;;3.22;;
37657;SDS011;23500;53.268;8.308;2022-10-22T00:15:38;3.42;;;3.10;;
37657;SDS011;23500;53.268;8.308;2022-10-22T00:18:03;3.90;;;3.50;;
37657;SDS011;23500;53.268;8.308;2022-10-22T00:20:29;3.83;;;3.42;;
37657;SDS011;23500;53.268;8.308;2022-10-22T00:22:55;4.47;;;3.10;;
37657;SDS011;23500;53.268;8.308;2022-10-22T00:25:20;7.63;;;3.35;;
37657;SDS011;23500;53.268;8.308;2022-10-22T00:27:46;3.65;;;3.30;;
37657;SDS011;23500;53.268;8.308;2022-10-22T00:30:12;6.65;;;3.70;;
37657;SDS011;23500;53.268;8.308;2022-10-22T00:32:37;4.43;;;3.25;;
37657;SDS011;23500;53.268;8.308;2022-10-22T00:35:03;3.97;;;3.58;;
37657;SDS011;23500;53.268;8.308;2022-10-22T00:37:29;3.65;;;3.25;;
37657;SDS011;23500;53.268;8.308;2022-10-22T00:39:55;4.75;;;3.60;;
37657;SDS011;23500;53.268;8.308;2022-10-22T00:42:22;3.75;;;3.15;;
37657;SDS011;23500;53.268;8.308;2022-10-22T00:47:33;4.07;;;3.25;;
37657;SDS011;23500;53.268;8.308;2022-10-22T00:50:21;4.45;;;3.40;;
37657;SDS011;23500;53.268;8.308;2022-10-22T00:52:48;4.70;;;3.42;;
37657;SDS011;23500;53.268;8.308;2022-10-22T00:55:14;3.63;;;3.15;;
37657;SDS011;23500;53.268;8.308;2022-10-22T00:57:41;3.90;;;3.45;;
37657;SDS011;23500;53.268;8.308;2022-10-22T01:00:08;5.03;;;3.30;;
37657;SDS011;23500;53.268;8.308;2022-10-22T01:02:34;4.82;;;3.28;;
37657;SDS011;23500;53.268;8.308;2022-10-22T01:05:00;3.35;;;2.97;;
37657;SDS011;23500;53.268;8.308;2022-10-22T01:07:26;3.30;;;3.00;;
37657;SDS011;23500;53.268;8.308;2022-10-22T01:09:58;4.43;;;3.17;;
37657;SDS011;23500;53.268;8.308;2022-10-22T01:12:53;3.75;;;3.40;;
37657;SDS011;23500;53.268;8.308;2022-10-22T01:21:02;4.05;;;3.03;;
37657;SDS011;23500;53.268;8.308;2022-10-22T01:29:17;3.90;;;3.40;;
37657;SDS011;23500;53.268;8.308;2022-10-22T01:32:02;4.03;;;3.30;;
37657;SDS011;23500;53.268;8.308;2022-10-22T01:34:34;3.45;;;2.92;;
37657;SDS011;23500;53.268;8.308;2022-10-22T01:37:03;5.65;;;3.40;;
37657;SDS011;23500;53.268;8.308;2022-10-22T01:39:28;4.22;;;3.42;;
37657;SDS011;23500;53.268;8.308;2022-10-22T01:41:55;3.72;;;3.20;;
37657;SDS011;23500;53.268;8.308;2022-10-22T01:44:25;3.40;;;3.05;;
37657;SDS011;23500;53.268;8.308;2022-10-22T01:50:12;4.18;;;3.22;;
37657;SDS011;23500;53.268;8.308;2022-10-22T01:58:37;3.20;;;2.90;;
37657;SDS011;23500;53.268;8.308;2022-10-22T02:07:14;3.45;;;3.10;;
37657;SDS011;23500;53.268;8.308;2022-10-22T02:09:43;3.13;;;2.80;;
37657;SDS011;23500;53.268;8.308;2022-10-22T02:12:09;4.25;;;3.25;;
37657;SDS011;23500;53.268;8.308;2022-10-22T02:14:38;4.25;;;3.25;;
37657;SDS011;23500;53.268;8.308;2022-10-22T02:17:07;3.30;;;2.85;;
37657;SDS011;23500;53.268;8.308;2022-10-22T02:22:38;3.38;;;3.05;;
37657;SDS011;23500;53.268;8.308;2022-10-22T02:25:05;3.92;;;3.20;;
37657;SDS011;23500;53.268;8.308;2022-10-22T02:27:34;3.15;;;2.85;;
37657;SDS011;23500;53.268;8.308;2022-10-22T02:35:32;3.33;;;2.80;;
37657;SDS011;23500;53.268;8.308;2022-10-22T02:37:59;3.92;;;3.15;;
37657;SDS011;23500;53.268;8.308;2022-10-22T02:40:26;3.45;;;3.08;;
37657;SDS011;23500;53.268;8.308;2022-10-22T02:42:54;3.30;;;2.92;;
37657;SDS011;23500;53.268;8.308;2022-10-22T02:45:20;3.50;;;3.20;;
37657;SDS011;23500;53.268;8.308;2022-10-22T02:47:46;3.25;;;2.95;;
37657;SDS011;23500;53.268;8.308;2022-10-22T02:50:12;3.70;;;3.08;;
37657;SDS011;23500;53.268;8.308;2022-10-22T02:52:37;3.17;;;2.88;;
37657;SDS011;23500;53.268;8.308;2022-10-22T02:55:03;3.38;;;2.92;;
37657;SDS011;23500;53.268;8.308;2022-10-22T02:57:30;3.20;;;2.90;;
37657;SDS011;23500;53.268;8.308;2022-10-22T02:59:56;3.10;;;2.80;;
37657;SDS011;23500;53.268;8.308;2022-10-22T03:02:22;4.10;;;2.83;;
37657;SDS011;23500;53.268;8.308;2022-10-22T03:04:48;4.43;;;2.95;;
37657;SDS011;23500;53.268;8.308;2022-10-22T03:07:14;3.55;;;3.20;;
37657;SDS011;23500;53.268;8.308;2022-10-22T03:09:39;3.90;;;3.50;;
37657;SDS011;23500;53.268;8.308;2022-10-22T03:12:05;3.25;;;2.80;;
37657;SDS011;23500;53.268;8.308;2022-10-22T03:14:32;3.22;;;2.90;;
37657;SDS011;23500;53.268;8.308;2022-10-22T03:16:59;3.33;;;2.70;;
37657;SDS011;23500;53.268;8.308;2022-10-22T03:19:25;3.20;;;2.88;;
37657;SDS011;23500;53.268;8.308;2022-10-22T03:22:01;3.70;;;2.75;;
37657;SDS011;23500;53.268;8.308;2022-10-22T03:24:37;3.17;;;2.88;;
37657;SDS011;23500;53.268;8.308;2022-10-22T03:27:04;3.75;;;3.00;;
37657;SDS011;23500;53.268;8.308;2022-10-22T03:29:31;3.72;;;2.72;;
37657;SDS011;23500;53.268;8.308;2022-10-22T03:32:00;3.47;;;2.58;;
37657;SDS011;23500;53.268;8.308;2022-10-22T03:34:26;2.83;;;2.50;;
37657;SDS011;23500;53.268;8.308;2022-10-22T03:36:51;2.85;;;2.60;;
37657;SDS011;23500;53.268;8.308;2022-10-22T03:39:18;3.55;;;2.63;;
37657;SDS011;23500;53.268;8.308;2022-10-22T03:41:45;2.90;;;2.47;;
37657;SDS011;23500;53.268;8.308;2022-10-22T03:44:13;2.80;;;2.55;;
37657;SDS011;23500;53.268;8.308;2022-10-22T03:46:40;3.78;;;2.75;;
37657;SDS011;23500;53.268;8.308;2022-10-22T03:49:06;2.75;;;2.55;;
37657;SDS011;23500;53.268;8.308;2022-10-22T03:51:32;3.75;;;2.72;;
37657;SDS011;23500;53.268;8.308;2022-10-22T03:53:58;3.15;;;2.85;;
37657;SDS011;23500;53.268;8.308;2022-10-22T03:56:23;3.05;;;2.50;;
37657;SDS011;23500;53.268;8.308;2022-10-22T03:58:49;3.03;;;2.72;;
37657;SDS011;23500;53.268;8.308;2022-10-22T04:01:15;3.55;;;2.67;;
37657;SDS011;23500;53.268;8.308;2022-10-22T04:03:40;3.10;;;2.80;;
37657;SDS011;23500;53.268;8.308;2022-10-22T04:06:10;3.30;;;3.00;;
37657;SDS011;23500;53.268;8.308;2022-10-22T04:08:40;3.33;;;2.75;;
37657;SDS011;23500;53.268;8.308;2022-10-22T04:11:07;2.80;;;2.45;;
37657;SDS011;23500;53.268;8.308;2022-10-22T04:13:32;4.47;;;2.63;;
37657;SDS011;23500;53.268;8.308;2022-10-22T04:16:05;3.15;;;2.83;;
37657;SDS011;23500;53.268;8.308;2022-10-22T04:18:35;3.17;;;2.75;;
37657;SDS011;23500;53.268;8.308;2022-10-22T04:21:01;2.92;;;2.72;;
37657;SDS011;23500;53.268;8.308;2022-10-22T04:23:27;3.65;;;2.50;;
37657;SDS011;23500;53.268;8.308;2022-10-22T04:25:56;4.28;;;2.88;;
37657;SDS011;23500;53.268;8.308;2022-10-22T04:28:23;3.22;;;2.88;;
37657;SDS011;23500;53.268;8.308;2022-10-22T04:30:48;2.90;;;2.65;;
37657;SDS011;23500;53.268;8.308;2022-10-22T04:33:14;3.42;;;2.70;;
37657;SDS011;23500;53.268;8.308;2022-10-22T04:35:39;3.22;;;2.65;;
37657;SDS011;23500;53.268;8.308;2022-10-22T04:38:05;2.92;;;2.53;;
37657;SDS011;23500;53.268;8.308;2022-10-22T04:40:31;4.00;;;3.00;;
37657;SDS011;23500;53.268;8.308;2022-10-22T04:42:56;3.22;;;2.70;;
37657;SDS011;23500;53.268;8.308;2022-10-22T04:45:22;2.72;;;2.47;;
37657;SDS011;23500;53.268;8.308;2022-10-22T04:47:48;3.67;;;2.42;;
37657;SDS011;23500;53.268;8.308;2022-10-22T04:50:13;3.05;;;2.50;;
37657;SDS011;23500;53.268;8.308;2022-10-22T04:52:39;2.42;;;2.22;;
37657;SDS011;23500;53.268;8.308;2022-10-22T04:55:05;2.63;;;2.40;;
37657;SDS011;23500;53.268;8.308;2022-10-22T04:57:30;3.55;;;3.25;;
37657;SDS011;23500;53.268;8.308;2022-10-22T04:59:57;4.70;;;2.83;;
37657;SDS011;23500;53.268;8.308;2022-10-22T05:02:22;2.60;;;2.40;;
37657;SDS011;23500;53.268;8.308;2022-10-22T05:04:48;2.95;;;2.72;;
37657;SDS011;23500;53.268;8.308;2022-10-22T05:07:14;4.63;;;2.80;;
37657;SDS011;23500;53.268;8.308;2022-10-22T05:09:39;4.07;;;2.47;;
37657;SDS011;23500;53.268;8.308;2022-10-22T05:12:05;4.53;;;2.90;;
37657;SDS011;23500;53.268;8.308;2022-10-22T05:14:31;3.35;;;2.55;;
37657;SDS011;23500;53.268;8.308;2022-10-22T05:16:57;3.35;;;2.63;;
37657;SDS011;23500;53.268;8.308;2022-10-22T05:19:27;4.05;;;2.63;;
37657;SDS011;23500;53.268;8.308;2022-10-22T05:21:55;2.78;;;2.40;;
37657;SDS011;23500;53.268;8.308;2022-10-22T05:24:23;2.60;;;2.40;;
37657;SDS011;23500;53.268;8.308;2022-10-22T05:26:53;2.95;;;2.63;;
37657;SDS011;23500;53.268;8.308;2022-10-22T05:29:19;3.58;;;2.35;;
37657;SDS011;23500;53.268;8.308;2022-10-22T05:31:45;2.78;;;2.58;;
37657;SDS011;23500;53.268;8.308;2022-10-22T05:34:11;3.42;;;2.50;;
37657;SDS011;23500;53.268;8.308;2022-10-22T05:36:37;2.65;;;2.45;;
37657;SDS011;23500;53.268;8.308;2022-10-22T05:39:03;2.67;;;2.42;;
37657;SDS011;23500;53.268;8.308;2022-10-22T05:41:29;2.42;;;2.22;;
37657;SDS011;23500;53.268;8.308;2022-10-22T05:43:57;2.47;;;2.28;;
37657;SDS011;23500;53.268;8.308;2022-10-22T05:46:25;2.80;;;2.45;;
37657;SDS011;23500;53.268;8.308;2022-10-22T05:48:53;2.58;;;2.33;;
37657;SDS011;23500;53.268;8.308;2022-10-22T05:51:21;2.60;;;2.38;;
37657;SDS011;23500;53.268;8.308;2022-10-22T05:53:52;2.60;;;2.40;;
37657;SDS011;23500;53.268;8.308;2022-10-22T05:56:19;4.03;;;2.88;;
37657;SDS011;23500;53.268;8.308;2022-10-22T05:58:45;4.93;;;2.17;;
37657;SDS011;23500;53.268;8.308;2022-10-22T06:01:13;3.30;;;2.42;;
37657;SDS011;23500;53.268;8.308;2022-10-22T06:03:43;2.90;;;2.65;;
37657;SDS011;23500;53.268;8.308;2022-10-22T06:08:45;3.30;;;2.67;;
37657;SDS011;23500;53.268;8.308;2022-10-22T06:11:16;3.60;;;2.45;;
37657;SDS011;23500;53.268;8.308;2022-10-22T06:13:46;2.97;;;2.38;;
37657;SDS011;23500;53.268;8.308;2022-10-22T06:16:12;2.80;;;2.30;;
37657;SDS011;23500;53.268;8.308;2022-10-22T06:18:38;2.60;;;2.10;;
37657;SDS011;23500;53.268;8.308;2022-10-22T06:21:05;2.65;;;2.40;;
37657;SDS011;23500;53.268;8.308;2022-10-22T06:23:32;2.67;;;2.13;;
37657;SDS011;23500;53.268;8.308;2022-10-22T06:25:58;2.38;;;2.17;;
37657;SDS011;23500;53.268;8.308;2022-10-22T06:28:24;3.10;;;2.55;;
37657;SDS011;23500;53.268;8.308;2022-10-22T06:30:50;2.67;;;2.47;;
37657;SDS011;23500;53.268;8.308;2022-10-22T06:33:16;3.45;;;2.25;;
37657;SDS011;23500;53.268;8.308;2022-10-22T06:35:42;3.42;;;2.67;;
37657;SDS011;23500;53.268;8.308;2022-10-22T06:38:09;2.35;;;2.00;;
37657;SDS011;23500;53.268;8.308;2022-10-22T06:40:35;4.43;;;2.83;;
37657;SDS011;23500;53.268;8.308;2022-10-22T06:43:00;3.45;;;2.63;;
37657;SDS011;23500;53.268;8.308;2022-10-22T06:45:26;2.72;;;2.33;;
37657;SDS011;23500;53.268;8.308;2022-10-22T06:47:52;3.03;;;2.20;;
37657;SDS011;23500;53.268;8.308;2022-10-22T06:50:19;3.45;;;2.30;;
37657;SDS011;23500;53.268;8.308;2022-10-22T06:52:45;3.88;;;2.38;;
37657;SDS011;23500;53.268;8.308;2022-10-22T06:55:11;3.17;;;2.45;;
37657;SDS011;23500;53.268;8.308;2022-10-22T06:57:36;2.50;;;2.30;;
37657;SDS011;23500;53.268;8.308;2022-10-22T07:00:03;7.88;;;2.47;;
37657;SDS011;23500;53.268;8.308;2022-10-22T07:02:30;2.80;;;2.55;;
37657;SDS011;23500;53.268;8.308;2022-10-22T07:04:56;2.90;;;2.60;;
37657;SDS011;23500;53.268;8.308;2022-10-22T07:07:22;3.22;;;2.70;;
37657;SDS011;23500;53.268;8.308;2022-10-22T07:09:47;3.25;;;2.50;;
37657;SDS011;23500;53.268;8.308;2022-10-22T07:12:13;2.90;;;2.60;;
37657;SDS011;23500;53.268;8.308;2022-10-22T07:14:40;3.35;;;2.40;;
37657;SDS011;23500;53.268;8.308;2022-10-22T07:17:06;2.60;;;2.40;;
37657;SDS011;23500;53.268;8.308;2022-10-22T07:19:31;3.17;;;2.35;;
37657;SDS011;23500;53.268;8.308;2022-10-22T07:21:57;2.38;;;2.17;;
37657;SDS011;23500;53.268;8.308;2022-10-22T07:24:23;3.25;;;2.35;;
37657;SDS011;23500;53.268;8.308;2022-10-22T07:26:49;2.58;;;2.38;;
37657;SDS011;23500;53.268;8.308;2022-10-22T07:29:15;2.65;;;2.45;;
37657;SDS011;23500;53.268;8.308;2022-10-22T07:31:41;5.75;;;3.05;;
37657;SDS011;23500;53.268;8.308;2022-10-22T07:34:07;2.63;;;2.40;;
37657;SDS011;23500;53.268;8.308;2022-10-22T07:36:33;2.55;;;2.35;;
37657;SDS011;23500;53.268;8.308;2022-10-22T07:38:59;2.67;;;2.42;;
37657;SDS011;23500;53.268;8.308;2022-10-22T07:41:26;4.07;;;2.60;;
37657;SDS011;23500;53.268;8.308;2022-10-22T07:43:53;3.13;;;2.47;;
37657;SDS011;23500;53.268;8.308;2022-10-22T07:46:19;3.58;;;2.50;;
37657;SDS011;23500;53.268;8.308;2022-10-22T07:48:45;3.33;;;2.47;;
37657;SDS011;23500;53.268;8.308;2022-10-22T07:51:11;2.65;;;2.10;;
37657;SDS011;23500;53.268;8.308;2022-10-22T07:53:39;3.22;;;2.38;;
37657;SDS011;23500;53.268;8.308;2022-10-22T07:56:05;2.80;;;2.60;;
37657;SDS011;23500;53.268;8.308;2022-10-22T07:58:31;3.53;;;2.22;;
37657;SDS011;23500;53.268;8.308;2022-10-22T08:00:57;3.65;;;2.17;;
37657;SDS011;23500;53.268;8.308;2022-10-22T08:03:26;2.60;;;2.33;;
37657;SDS011;23500;53.268;8.308;2022-10-22T08:05:53;2.85;;;2.30;;
37657;SDS011;23500;53.268;8.308;2022-10-22T08:08:19;3.28;;;2.58;;
37657;SDS011;23500;53.268;8.308;2022-10-22T08:10:46;2.97;;;2.67;;
37657;SDS011;23500;53.268;8.308;2022-10-22T08:13:12;3.45;;;2.63;;
37657;SDS011;23500;53.268;8.308;2022-10-22T08:15:38;2.97;;;2.50;;
37657;SDS011;23500;53.268;8.308;2022-10-22T08:18:04;2.60;;;2.40;;
37657;SDS011;23500;53.268;8.308;2022-10-22T08:20:29;3.97;;;2.60;;
37657;SDS011;23500;53.268;8.308;2022-10-22T08:22:55;2.63;;;2.42;;
37657;SDS011;23500;53.268;8.308;2022-10-22T08:25:22;3.70;;;2.63;;
37657;SDS011;23500;53.268;8.308;2022-10-22T08:27:48;2.80;;;2.50;;
37657;SDS011;23500;53.268;8.308;2022-10-22T08:30:13;2.30;;;2.10;;
37657;SDS011;23500;53.268;8.308;2022-10-22T08:32:39;2.58;;;2.30;;
37657;SDS011;23500;53.268;8.308;2022-10-22T08:35:05;2.90;;;2.22;;
37657;SDS011;23500;53.268;8.308;2022-10-22T08:37:32;4.30;;;2.45;;
37657;SDS011;23500;53.268;8.308;2022-10-22T08:39:57;2.40;;;2.17;;
37657;SDS011;23500;53.268;8.308;2022-10-22T08:50:42;2.97;;;2.30;;
37657;SDS011;23500;53.268;8.308;2022-10-22T08:53:17;3.47;;;2.10;;
37657;SDS011;23500;53.268;8.308;2022-10-22T08:55:46;2.58;;;2.10;;
37657;SDS011;23500;53.268;8.308;2022-10-22T09:01:22;3.10;;;2.10;;
37657;SDS011;23500;53.268;8.308;2022-10-22T09:06:29;3.28;;;2.58;;
37657;SDS011;23500;53.268;8.308;2022-10-22T09:08:57;3.95;;;2.42;;
37657;SDS011;23500;53.268;8.308;2022-10-22T09:14:01;3.10;;;2.38;;
37657;SDS011;23500;53.268;8.308;2022-10-22T09:19:24;2.30;;;2.10;;
37657;SDS011;23500;53.268;8.308;2022-10-22T09:25:24;3.08;;;2.78;;
37657;SDS011;23500;53.268;8.308;2022-10-22T09:27:52;3.13;;;2.70;;
37657;SDS011;23500;53.268;8.308;2022-10-22T09:30:23;4.63;;;2.38;;
37657;SDS011;23500;53.268;8.308;2022-10-22T09:32:54;4.93;;;2.80;;
37657;SDS011;23500;53.268;8.308;2022-10-22T09:35:30;5.20;;;2.95;;
37657;SDS011;23500;53.268;8.308;2022-10-22T09:37:58;3.35;;;2.78;;
37657;SDS011;23500;53.268;8.308;2022-10-22T09:40:38;3.00;;;2.40;;
37657;SDS011;23500;53.268;8.308;2022-10-22T09:43:14;2.88;;;2.28;;
37657;SDS011;23500;53.268;8.308;2022-10-22T09:45:41;4.32;;;2.83;;
37657;SDS011;23500;53.268;8.308;2022-10-22T09:50:45;2.58;;;2.38;;
37657;SDS011;23500;53.268;8.308;2022-10-22T09:53:16;3.55;;;3.03;;
37657;SDS011;23500;53.268;8.308;2022-10-22T09:55:57;2.85;;;2.50;;
37657;SDS011;23500;53.268;8.308;2022-10-22T09:58:24;4.00;;;2.70;;
37657;SDS011;23500;53.268;8.308;2022-10-22T10:00:55;4.18;;;2.53;;
37657;SDS011;23500;53.268;8.308;2022-10-22T10:03:26;3.35;;;2.30;;
37657;SDS011;23500;53.268;8.308;2022-10-22T10:05:56;3.40;;;2.60;;
37657;SDS011;23500;53.268;8.308;2022-10-22T10:08:23;3.53;;;2.70;;
37657;SDS011;23500;53.268;8.308;2022-10-22T10:10:57;2.60;;;2.20;;
37657;SDS011;23500;53.268;8.308;2022-10-22T10:16:29;3.28;;;2.30;;
37657;SDS011;23500;53.268;8.308;2022-10-22T10:27:43;5.05;;;2.38;;
37657;SDS011;23500;53.268;8.308;2022-10-22T10:30:31;3.97;;;2.35;;
37657;SDS011;23500;53.268;8.308;2022-10-22T10:36:07;3.40;;;2.25;;
37657;SDS011;23500;53.268;8.308;2022-10-22T10:41:51;3.25;;;2.30;;
37657;SDS011;23500;53.268;8.308;2022-10-22T10:44:39;2.95;;;2.17;;
37657;SDS011;23500;53.268;8.308;2022-10-22T10:47:28;3.15;;;2.20;;
37657;SDS011;23500;53.268;8.308;2022-10-22T10:50:28;4.97;;;2.40;;
37657;SDS011;23500;53.268;8.308;2022-10-22T10:55:28;4.38;;;2.95;;
37657;SDS011;23500;53.268;8.308;2022-10-22T10:58:04;6.40;;;3.28;;
37657;SDS011;23500;53.268;8.308;2022-10-22T11:00:58;6.78;;;3.25;;
37657;SDS011;23500;53.268;8.308;2022-10-22T11:06:19;4.15;;;3.22;;
37657;SDS011;23500;53.268;8.308;2022-10-22T11:08:50;6.25;;;3.40;;
37657;SDS011;23500;53.268;8.308;2022-10-22T11:11:21;8.02;;;3.47;;
37657;SDS011;23500;53.268;8.308;2022-10-22T11:13:56;7.03;;;3.20;;
37657;SDS011;23500;53.268;8.308;2022-10-22T11:16:23;8.23;;;3.20;;
37657;SDS011;23500;53.268;8.308;2022-10-22T11:24:22;5.38;;;2.78;;
37657;SDS011;23500;53.268;8.308;2022-10-22T11:29:30;6.25;;;3.03;;
37657;SDS011;23500;53.268;8.308;2022-10-22T11:32:11;7.30;;;3.10;;
37657;SDS011;23500;53.268;8.308;2022-10-22T11:37:12;6.53;;;2.90;;
37657;SDS011;23500;53.268;8.308;2022-10-22T11:39:46;6.63;;;3.00;;
37657;SDS011;23500;53.268;8.308;2022-10-22T11:47:31;5.10;;;3.15;;
37657;SDS011;23500;53.268;8.308;2022-10-22T11:50:17;4.10;;;2.65;;
37657;SDS011;23500;53.268;8.308;2022-10-22T11:53:05;6.45;;;3.00;;
37657;SDS011;23500;53.268;8.308;2022-10-22T12:01:21;6.93;;;3.30;;
37657;SDS011;23500;53.268;8.308;2022-10-22T12:07:02;5.22;;;3.65;;
37657;SDS011;23500;53.268;8.308;2022-10-22T12:09:28;5.75;;;3.40;;
37657;SDS011;23500;53.268;8.308;2022-10-22T12:12:12;4.88;;;3.10;;
37657;SDS011;23500;53.268;8.308;2022-10-22T12:14:57;6.15;;;3.60;;
37657;SDS011;23500;53.268;8.308;2022-10-22T12:17:23;5.68;;;3.40;;
37657;SDS011;23500;53.268;8.308;2022-10-22T12:20:10;4.13;;;3.30;;
37657;SDS011;23500;53.268;8.308;2022-10-22T12:22:38;6.35;;;3.38;;
37657;SDS011;23500;53.268;8.308;2022-10-22T12:25:22;5.40;;;3.22;;
37657;SDS011;23500;53.268;8.308;2022-10-22T12:27:57;7.85;;;3.80;;
37657;SDS011;23500;53.268;8.308;2022-10-22T12:30:28;5.78;;;3.47;;
37657;SDS011;23500;53.268;8.308;2022-10-22T12:32:58;5.20;;;3.67;;
37657;SDS011;23500;53.268;8.308;2022-10-22T12:35:59;5.13;;;2.97;;
37657;SDS011;23500;53.268;8.308;2022-10-22T12:38:21;7.28;;;3.65;;
37657;SDS011;23500;53.268;8.308;2022-10-22T12:40:49;8.15;;;3.92;;
37657;SDS011;23500;53.268;8.308;2022-10-22T12:43:19;9.73;;;3.50;;
37657;SDS011;23500;53.268;8.308;2022-10-22T12:45:53;8.27;;;3.78;;
37657;SDS011;23500;53.268;8.308;2022-10-22T12:48:32;6.40;;;3.38;;
37657;SDS011;23500;53.268;8.308;2022-10-22T12:51:03;6.15;;;3.33;;
37657;SDS011;23500;53.268;8.308;2022-10-22T12:53:35;9.25;;;3.30;;
37657;SDS011;23500;53.268;8.308;2022-10-22T12:56:09;6.55;;;3.70;;
37657;SDS011;23500;53.268;8.308;2022-10-22T12:58:41;8.38;;;4.07;;
37657;SDS011;23500;53.268;8.308;2022-10-22T13:01:13;5.80;;;3.40;;
37657;SDS011;23500;53.268;8.308;2022-10-22T13:03:47;7.40;;;3.33;;
37657;SDS011;23500;53.268;8.308;2022-10-22T13:11:52;6.90;;;3.30;;
37657;SDS011;23500;53.268;8.308;2022-10-22T13:22:24;8.75;;;3.22;;
37657;SDS011;23500;53.268;8.308;2022-10-22T13:25:02;7.05;;;3.50;;
37657;SDS011;23500;53.268;8.308;2022-10-22T13:27:47;6.10;;;3.30;;
37657;SDS011;23500;53.268;8.308;2022-10-22T13:30:36;5.72;;;3.58;;
37657;SDS011;23500;53.268;8.308;2022-10-22T13:33:05;5.47;;;2.97;;
37657;SDS011;23500;53.268;8.308;2022-10-22T13:35:46;8.32;;;3.13;;
37657;SDS011;23500;53.268;8.308;2022-10-22T13:38:17;7.28;;;3.25;;
37657;SDS011;23500;53.268;8.308;2022-10-22T13:40:44;6.38;;;3.90;;
37657;SDS011;23500;53.268;8.308;2022-10-22T13:43:10;6.30;;;3.13;;
37657;SDS011;23500;53.268;8.308;2022-10-22T13:45:36;5.88;;;3.53;;
37657;SDS011;23500;53.268;8.308;2022-10-22T13:48:02;4.88;;;3.28;;
37657;SDS011;23500;53.268;8.308;2022-10-22T13:50:28;7.00;;;3.30;;
37657;SDS011;23500;53.268;8.308;2022-10-22T13:52:54;5.65;;;3.42;;
37657;SDS011;23500;53.268;8.308;2022-10-22T13:55:28;4.88;;;3.05;;
37657;SDS011;23500;53.268;8.308;2022-10-22T13:58:03;4.43;;;3.03;;
37657;SDS011;23500;53.268;8.308;2022-10-22T14:00:35;4.80;;;3.25;;
37657;SDS011;23500;53.268;8.308;2022-10-22T14:03:03;4.05;;;2.97;;
37657;SDS011;23500;53.268;8.308;2022-10-22T14:05:29;4.00;;;3.13;;
37657;SDS011;23500;53.268;8.308;2022-10-22T14:07:59;7.70;;;3.85;;
37657;SDS011;23500;53.268;8.308;2022-10-22T14:10:26;5.85;;;3.28;;
37657;SDS011;23500;53.268;8.308;2022-10-22T14:12:52;6.80;;;3.22;;
37657;SDS011;23500;53.268;8.308;2022-10-22T14:15:18;6.75;;;3.30;;
37657;SDS011;23500;53.268;8.308;2022-10-22T14:17:48;5.05;;;3.30;;
37657;SDS011;23500;53.268;8.308;2022-10-22T14:20:20;6.57;;;3.15;;
37657;SDS011;23500;53.268;8.308;2022-10-22T14:22:49;4.35;;;3.13;;
37657;SDS011;23500;53.268;8.308;2022-10-22T14:25:16;4.80;;;3.17;;
37657;SDS011;23500;53.268;8.308;2022-10-22T14:27:44;6.55;;;3.20;;
37657;SDS011;23500;53.268;8.308;2022-10-22T14:30:17;4.65;;;3.15;;
37657;SDS011;23500;53.268;8.308;2022-10-22T14:32:44;5.38;;;2.90;;
37657;SDS011;23500;53.268;8.308;2022-10-22T14:35:12;6.65;;;3.60;;
37657;SDS011;23500;53.268;8.308;2022-10-22T14:37:40;6.80;;;3.35;;
37657;SDS011;23500;53.268;8.308;2022-10-22T14:40:06;4.57;;;3.10;;
37657;SDS011;23500;53.268;8.308;2022-10-22T14:42:34;4.18;;;3.10;;
37657;SDS011;23500;53.268;8.308;2022-10-22T14:45:04;3.90;;;3.00;;
37657;SDS011;23500;53.268;8.308;2022-10-22T14:47:30;5.55;;;3.25;;
37657;SDS011;23500;53.268;8.308;2022-10-22T14:49:57;4.68;;;3.13;;
37657;SDS011;23500;53.268;8.308;2022-10-22T14:52:23;5.05;;;3.28;;
37657;SDS011;23500;53.268;8.308;2022-10-22T14:54:48;5.65;;;3.38;;
37657;SDS011;23500;53.268;8.308;2022-10-22T14:57:14;6.43;;;3.42;;
37657;SDS011;23500;53.268;8.308;2022-10-22T14:59:40;70.25;;;59.63;;
37657;SDS011;23500;53.268;8.308;2022-10-22T15:02:08;65.53;;;55.25;;
37657;SDS011;23500;53.268;8.308;2022-10-22T15:04:37;86.15;;;76.28;;
37657;SDS011;23500;53.268;8.308;2022-10-22T15:07:03;77.90;;;67.82;;
37657;SDS011;23500;53.268;8.308;2022-10-22T15:09:29;70.75;;;61.05;;
37657;SDS011;23500;53.268;8.308;2022-10-22T15:11:54;67.47;;;58.92;;
37657;SDS011;23500;53.268;8.308;2022-10-22T15:14:20;61.42;;;53.20;;
37657;SDS011;23500;53.268;8.308;2022-10-22T15:16:46;59.50;;;51.13;;
37657;SDS011;23500;53.268;8.308;2022-10-22T15:19:11;55.80;;;49.65;;
37657;SDS011;23500;53.268;8.308;2022-10-22T15:21:38;53.45;;;47.65;;
37657;SDS011;23500;53.268;8.308;2022-10-22T15:24:04;52.58;;;46.85;;
37657;SDS011;23500;53.268;8.308;2022-10-22T15:26:29;50.45;;;44.95;;
37657;SDS011;23500;53.268;8.308;2022-10-22T15:28:55;53.75;;;47.38;;
37657;SDS011;23500;53.268;8.308;2022-10-22T15:31:40;54.13;;;47.20;;
37657;SDS011;23500;53.268;8.308;2022-10-22T15:34:23;50.90;;;45.40;;
37657;SDS011;23500;53.268;8.308;2022-10-22T15:36:52;51.22;;;44.85;;
37657;SDS011;23500;53.268;8.308;2022-10-22T15:39:19;49.47;;;44.10;;
37657;SDS011;23500;53.268;8.308;2022-10-22T15:41:45;49.95;;;42.47;;
37657;SDS011;23500;53.268;8.308;2022-10-22T15:44:13;48.28;;;43.10;;
37657;SDS011;23500;53.268;8.308;2022-10-22T15:46:40;48.22;;;42.67;;
37657;SDS011;23500;53.268;8.308;2022-10-22T15:49:06;50.13;;;42.65;;
37657;SDS011;23500;53.268;8.308;2022-10-22T15:51:32;54.00;;;48.35;;
37657;SDS011;23500;53.268;8.308;2022-10-22T15:53:58;55.95;;;50.10;;
37657;SDS011;23500;53.268;8.308;2022-10-22T15:56:24;49.97;;;44.88;;
37657;SDS011;23500;53.268;8.308;2022-10-22T15:58:51;51.80;;;46.47;;
37657;SDS011;23500;53.268;8.308;2022-10-22T16:01:22;49.72;;;44.67;;
37657;SDS011;23500;53.268;8.308;2022-10-22T16:03:49;48.58;;;43.53;;
37657;SDS011;23500;53.268;8.308;2022-10-22T16:06:27;47.63;;;42.42;;
37657;SDS011;23500;53.268;8.308;2022-10-22T16:08:56;48.10;;;43.17;;
37657;SDS011;23500;53.268;8.308;2022-10-22T16:11:23;47.97;;;42.92;;
37657;SDS011;23500;53.268;8.308;2022-10-22T16:13:52;46.65;;;41.85;;
37657;SDS011;23500;53.268;8.308;2022-10-22T16:16:20;48.95;;;43.72;;
37657;SDS011;23500;53.268;8.308;2022-10-22T16:18:46;47.70;;;42.67;;
37657;SDS011;23500;53.268;8.308;2022-10-22T16:21:12;45.28;;;40.58;;
37657;SDS011;23500;53.268;8.308;2022-10-22T16:23:40;47.70;;;42.70;;
37657;SDS011;23500;53.268;8.308;2022-10-22T16:26:06;45.75;;;41.10;;
37657;SDS011;23500;53.268;8.308;2022-10-22T16:28:32;45.40;;;40.80;;
37657;SDS011;23500;53.268;8.308;2022-10-22T16:31:02;45.10;;;40.40;;
37657;SDS011;23500;53.268;8.308;2022-10-22T16:33:28;47.30;;;42.15;;
37657;SDS011;23500;53.268;8.308;2022-10-22T16:35:54;45.45;;;40.83;;
37657;SDS011;23500;53.268;8.308;2022-10-22T16:38:20;46.50;;;41.63;;
37657;SDS011;23500;53.268;8.308;2022-10-22T16:40:45;46.78;;;42.08;;
37657;SDS011;23500;53.268;8.308;2022-10-22T16:43:11;45.35;;;40.67;;
37657;SDS011;23500;53.268;8.308;2022-10-22T16:45:36;44.60;;;39.88;;
37657;SDS011;23500;53.268;8.308;2022-10-22T16:48:02;45.60;;;40.95;;
37657;SDS011;23500;53.268;8.308;2022-10-22T16:50:28;44.85;;;40.28;;
37657;SDS011;23500;53.268;8.308;2022-10-22T16:52:54;43.78;;;39.38;;
37657;SDS011;23500;53.268;8.308;2022-10-22T16:55:19;45.22;;;40.45;;
37657;SDS011;23500;53.268;8.308;2022-10-22T16:57:49;44.17;;;39.65;;
37657;SDS011;23500;53.268;8.308;2022-10-22T17:00:16;44.55;;;40.13;;